Time;durP1;ratioP1;P1;durP2;ratioP2;P2;SDS_P1;SDS_P2;PMS_P1;PMS_P2;Temp;Humidity;BMP_temperature;BMP_pressure;BME280_temperature;BME280_humidity;BME280_pressure;Samples;Min_cycle;Max_cycle;Signal;HPM_P1;HPM_P2
2022/06/28 00:04:49;;;;;;;;;;;14.50;99.90;;;;;;10244880;28;84876;-49
2022/06/28 00:09:49;;;;;;;;;;;14.50;99.90;;;;;;10246893;28;84886;-48
2022/06/28 00:20:10;;;;;;;;;;;14.50;99.90;;;;;;10220418;28;84089;-51
2022/06/28 00:25:10;;;;;;;;;;;14.40;99.90;;;;;;10206638;28;85328;-52
2022/06/28 00:30:11;;;;;;;;;;;14.50;99.90;;;;;;10206646;28;84886;-47
2022/06/28 00:35:12;;;;;;;;;;;14.30;99.90;;;;;;10236786;28;86479;-52
2022/06/28 00:40:12;;;;;;;;;;;14.20;99.90;;;;;;10245701;28;84106;-48
2022/06/28 00:45:14;;;;;;;;;;;14.30;99.90;;;;;;10233272;28;85178;-48
2022/06/28 00:50:15;;;;;;;;;;;14.20;99.90;;;;;;10229371;28;86831;-51
2022/06/28 00:55:15;;;;;;;;;;;14.20;99.90;;;;;;10221233;28;84177;-49
2022/06/28 01:00:16;;;;;;;;;;;14.20;99.90;;;;;;10271210;28;86169;-51
2022/06/28 01:05:17;;;;;;;;;;;14.10;99.90;;;;;;10251974;28;84891;-47
2022/06/28 01:10:18;;;;;;;;;;;14.20;99.90;;;;;;10266044;28;86830;-48
2022/06/28 01:15:19;;;;;;;;;;;14.20;99.90;;;;;;10250244;28;84196;-50
2022/06/28 01:20:27;;;;;;;;;;;14.10;99.90;;;;;;10265451;28;84805;-47
2022/06/28 01:25:40;;;;;;;;;;;14.20;99.90;;;;;;10251783;28;86879;-47
2022/06/28 01:30:42;;;;;;;;;;;14.00;99.90;;;;;;10249733;28;84437;-48
2022/06/28 01:35:50;;;;;;;;;;;14.00;99.90;;;;;;10251682;28;86534;-50
2022/06/28 01:40:54;;;;;;;;;;;14.00;99.90;;;;;;10254813;28;84461;-50
2022/06/28 01:45:55;;;;;;;;;;;14.00;99.90;;;;;;10257256;28;84103;-47
2022/06/28 01:50:57;;;;;;;;;;;13.90;99.90;;;;;;10255446;28;84962;-50
2022/06/28 01:55:58;;;;;;;;;;;14.00;99.90;;;;;;10248034;28;86025;-50
2022/06/28 02:01:24;;;;;;;;;;;14.00;99.90;;;;;;10243686;28;84479;-49
2022/06/28 02:06:27;;;;;;;;;;;14.00;99.90;;;;;;10246528;28;86196;-51
2022/06/28 02:11:32;;;;;;;;;;;14.00;99.90;;;;;;10245708;28;85976;-47
2022/06/28 02:16:34;;;;;;;;;;;13.90;99.90;;;;;;10308167;22;86079;-46
2022/06/28 02:21:39;;;;;;;;;;;13.80;99.90;;;;;;10269816;28;86663;-52
2022/06/28 02:26:41;;;;;;;;;;;13.80;99.90;;;;;;10304339;28;86051;-48
2022/06/28 02:31:41;;;;;;;;;;;13.70;99.90;;;;;;10267984;28;84770;-49
2022/06/28 02:42:02;;;;;;;;;;;13.70;99.90;;;;;;10268970;28;84606;-47
2022/06/28 02:47:03;;;;;;;;;;;13.60;99.90;;;;;;10273831;28;84973;-48
2022/06/28 02:52:04;;;;;;;;;;;13.60;99.90;;;;;;10286956;28;84898;-48
2022/06/28 02:57:04;;;;;;;;;;;13.40;99.90;;;;;;10239531;28;85599;-46
2022/06/28 03:02:05;;;;;;;;;;;13.40;99.90;;;;;;10222500;28;84836;-50
2022/06/28 03:07:06;;;;;;;;;;;13.40;99.90;;;;;;10221085;28;86093;-53
2022/06/28 03:12:06;;;;;;;;;;;13.40;99.90;;;;;;10228990;28;86870;-49
2022/06/28 03:17:07;;;;;;;;;;;13.40;99.90;;;;;;10245997;28;87265;-47
2022/06/28 03:22:08;;;;;;;;;;;13.40;99.90;;;;;;10263246;28;85943;-48
2022/06/28 03:27:08;;;;;;;;;;;13.40;99.90;;;;;;10246795;28;86801;-49
2022/06/28 03:32:09;;;;;;;;;;;13.40;99.90;;;;;;10277825;28;85791;-49
2022/06/28 03:37:10;;;;;;;;;;;13.30;99.90;;;;;;10302488;28;84932;-47
2022/06/28 03:42:17;;;;;;;;;;;13.30;99.90;;;;;;10225123;28;86016;-48
2022/06/28 03:47:20;;;;;;;;;;;13.20;99.90;;;;;;10205885;28;85728;-48
2022/06/28 03:52:28;;;;;;;;;;;13.20;99.90;;;;;;10207169;28;85053;-47
2022/06/28 03:58:01;;;;;;;;;;;13.20;99.90;;;;;;10206948;28;84906;-47
2022/06/28 04:03:01;;;;;;;;;;;13.20;99.90;;;;;;10220287;28;87026;-47
2022/06/28 04:08:10;;;;;;;;;;;13.20;99.90;;;;;;10229952;28;86897;-47
2022/06/28 04:13:19;;;;;;;;;;;13.30;99.90;;;;;;10247566;28;87242;-51
2022/06/28 04:18:19;;;;;;;;;;;13.40;99.90;;;;;;10293172;28;87353;-50
2022/06/28 04:23:48;;;;;;;;;;;13.60;99.90;;;;;;10307766;28;85810;-51
2022/06/28 04:28:49;;;;;;;;;;;13.60;99.90;;;;;;10299571;28;85953;-48
2022/06/28 04:33:55;;;;;;;;;;;13.60;99.90;;;;;;10227036;28;85783;-50
2022/06/28 04:39:00;;;;;;;;;;;13.70;99.90;;;;;;10226753;28;87539;-43
2022/06/28 04:44:07;;;;;;;;;;;13.80;99.90;;;;;;10252053;28;86154;-47
2022/06/28 04:49:13;;;;;;;;;;;14.00;99.90;;;;;;10250203;28;85663;-49
2022/06/28 04:54:20;;;;;;;;;;;14.10;99.90;;;;;;10249944;28;86970;-49
2022/06/28 04:59:41;;;;;;;;;;;14.20;99.90;;;;;;10246482;28;84505;-48
2022/06/28 05:04:50;;;;;;;;;;;14.40;99.90;;;;;;10214927;28;85782;-48
2022/06/28 05:10:00;;;;;;;;;;;14.50;99.90;;;;;;10227560;28;85982;-52
2022/06/28 05:15:01;;;;;;;;;;;14.30;99.90;;;;;;10234499;28;86819;-49
2022/06/28 05:20:17;;;;;;;;;;;14.30;99.90;;;;;;10244417;28;86969;-48
2022/06/28 05:25:18;;;;;;;;;;;14.50;99.90;;;;;;10248888;28;86997;-47
2022/06/28 05:30:18;;;;;;;;;;;14.70;99.90;;;;;;10225264;28;86890;-49
2022/06/28 05:35:19;;;;;;;;;;;15.00;99.90;;;;;;10249361;28;86584;-52
2022/06/28 05:40:20;;;;;;;;;;;15.30;99.90;;;;;;10249705;28;85725;-49
2022/06/28 05:45:20;;;;;;;;;;;15.60;99.90;;;;;;10247585;28;87149;-55
2022/06/28 05:50:21;;;;;;;;;;;15.80;99.90;;;;;;10247447;28;84848;-48
2022/06/28 05:55:21;;;;;;;;;;;16.00;99.90;;;;;;10249404;28;84569;-47
2022/06/28 06:00:24;;;;;;;;;;;16.10;99.90;;;;;;10263333;28;86170;-48
2022/06/28 06:05:24;;;;;;;;;;;16.20;99.90;;;;;;10247397;28;87022;-49
2022/06/28 06:10:26;;;;;;;;;;;16.40;99.90;;;;;;10247138;28;85999;-50
2022/06/28 06:15:27;;;;;;;;;;;16.60;99.90;;;;;;10247350;28;86750;-49
2022/06/28 06:20:27;;;;;;;;;;;16.70;99.90;;;;;;10238098;28;84272;-48
2022/06/28 06:25:28;;;;;;;;;;;16.90;1.00;;;;;;10247132;28;86761;-49
2022/06/28 06:30:29;;;;;;;;;;;17.20;1.00;;;;;;10247276;28;86784;-51
2022/06/28 06:35:41;;;;;;;;;;;17.20;1.00;;;;;;10247453;28;87112;-46
2022/06/28 06:40:42;;;;;;;;;;;17.40;1.00;;;;;;10248328;28;86921;-46
2022/06/28 06:45:42;;;;;;;;;;;17.60;1.00;;;;;;10251083;28;87004;-48
2022/06/28 06:50:43;;;;;;;;;;;17.80;1.00;;;;;;10233185;28;84714;-55
2022/06/28 06:55:43;;;;;;;;;;;18.00;1.00;;;;;;10246619;28;85658;-48
2022/06/28 07:00:44;;;;;;;;;;;18.10;1.00;;;;;;10262841;28;85899;-49
2022/06/28 07:05:45;;;;;;;;;;;18.30;1.00;;;;;;10257735;28;87024;-49
2022/06/28 07:10:46;;;;;;;;;;;18.60;1.00;;;;;;10302792;28;86822;-51
2022/06/28 07:15:48;;;;;;;;;;;18.70;1.00;;;;;;10272026;28;85408;-48
2022/06/28 07:20:55;;;;;;;;;;;18.80;1.00;;;;;;10301749;28;84154;-49
2022/06/28 07:25:55;;;;;;;;;;;18.80;1.00;;;;;;10286192;28;86865;-49
2022/06/28 07:30:56;;;;;;;;;;;19.20;1.00;;;;;;10302079;28;87161;-50
2022/06/28 07:35:56;;;;;;;;;;;19.60;1.00;;;;;;10302391;28;86889;-49
2022/06/28 07:40:57;;;;;;;;;;;19.80;1.00;;;;;;10286106;28;85837;-48
2022/06/28 07:46:19;;;;;;;;;;;20.30;91.10;;;;;;10286075;28;84883;-51
2022/06/28 07:56:38;;;;;;;;;;;21.80;1.00;;;;;;10284843;28;85105;-50
2022/06/28 08:01:41;;;;;;;;;;;22.20;1.00;;;;;;10301304;28;85840;-47
2022/06/28 08:06:51;;;;;;;;;;;22.70;1.00;;;;;;10300457;28;86649;-51
2022/06/28 08:11:54;;;;;;;;;;;23.20;99.90;;;;;;10300359;28;86071;-47
2022/06/28 08:16:55;;;;;;;;;;;22.90;1.00;;;;;;10313315;22;85968;-48
2022/06/28 08:21:55;;;;;;;;;;;23.10;1.00;;;;;;10244331;28;84005;-51
2022/06/28 08:26:56;;;;;;;;;;;23.40;1.00;;;;;;10243504;28;86566;-52
2022/06/28 08:31:57;;;;;;;;;;;23.80;1.00;;;;;;10243640;28;86783;-50
2022/06/28 08:36:58;;;;;;;;;;;23.60;99.90;;;;;;10242714;28;85747;-49
2022/06/28 08:42:02;;;;;;;;;;;23.90;1.00;;;;;;10244829;28;84316;-50
2022/06/28 08:47:03;;;;;;;;;;;24.20;99.90;;;;;;10243789;28;84088;-49
2022/06/28 08:52:04;;;;;;;;;;;25.20;1.00;;;;;;10243685;28;84106;-53
2022/06/28 08:57:05;;;;;;;;;;;25.90;99.90;;;;;;10244747;28;84353;-49
2022/06/28 09:02:06;;;;;;;;;;;25.80;4.50;;;;;;10243830;28;84923;-52
2022/06/28 09:07:06;;;;;;;;;;;26.20;1.00;;;;;;10248715;28;84740;-49
2022/06/28 09:12:07;;;;;;;;;;;26.80;1.00;;;;;;10251426;28;84869;-52
2022/06/28 09:17:17;;;;;;;;;;;26.70;1.00;;;;;;10250679;28;84897;-49
2022/06/28 09:22:28;;;;;;;;;;;27.60;1.00;;;;;;10250428;28;86700;-52
2022/06/28 09:27:30;;;;;;;;;;;27.60;99.90;;;;;;10250969;28;84927;-50
2022/06/28 09:32:31;;;;;;;;;;;27.40;99.90;;;;;;10250331;28;84277;-51
2022/06/28 09:37:37;;;;;;;;;;;26.20;99.90;;;;;;10250664;28;85023;-48
2022/06/28 09:42:39;;;;;;;;;;;26.70;1.00;;;;;;10249934;28;84141;-54
2022/06/28 09:47:49;;;;;;;;;;;28.00;99.90;;;;;;10250025;28;84748;-50
2022/06/28 09:52:50;;;;;;;;;;;27.90;99.90;;;;;;10249727;28;84126;-48
2022/06/28 09:57:50;;;;;;;;;;;28.00;99.90;;;;;;10249411;28;84938;-52
2022/06/28 10:02:54;;;;;;;;;;;28.60;61.10;;;;;;10249524;28;84160;-53
2022/06/28 10:07:54;;;;;;;;;;;29.30;1.00;;;;;;10253614;28;84154;-52
2022/06/28 10:18:15;;;;;;;;;;;27.40;1.00;;;;;;10248512;28;84725;-51
2022/06/28 10:23:23;;;;;;;;;;;28.30;1.00;;;;;;10247234;28;84878;-51
2022/06/28 10:28:25;;;;;;;;;;;29.90;1.00;;;;;;10248420;28;84762;-52
2022/06/28 10:33:40;;;;;;;;;;;31.00;1.00;;;;;;10249038;28;84103;-48
2022/06/28 10:38:59;;;;;;;;;;;31.70;1.00;;;;;;10248317;28;84210;-49
2022/06/28 10:44:12;;;;;;;;;;;32.30;1.00;;;;;;10248335;28;84257;-48
2022/06/28 10:49:13;;;;;;;;;;;31.70;1.00;;;;;;10247719;28;84974;-47
2022/06/28 10:54:16;;;;;;;;;;;29.90;1.00;;;;;;10248704;28;85036;-47
2022/06/28 10:59:17;;;;;;;;;;;28.30;1.00;;;;;;10249690;28;84901;-48
2022/06/28 11:04:18;;;;;;;;;;;27.30;1.00;;;;;;10247995;28;84790;-52
2022/06/28 11:09:21;;;;;;;;;;;26.40;1.00;;;;;;10246918;28;85903;-50
2022/06/28 11:14:29;;;;;;;;;;;27.40;1.00;;;;;;10248261;28;84324;-49
2022/06/28 11:19:30;;;;;;;;;;;27.30;1.00;;;;;;10246701;28;84169;-48
2022/06/28 11:24:30;;;;;;;;;;;29.10;1.00;;;;;;10245692;28;85090;-49
2022/06/28 11:29:32;;;;;;;;;;;30.40;1.00;;;;;;10245708;28;84346;-49
2022/06/28 11:34:32;;;;;;;;;;;29.20;1.00;;;;;;10246270;28;84873;-49
2022/06/28 11:39:33;;;;;;;;;;;28.70;1.00;;;;;;10245134;28;84138;-48
2022/06/28 11:44:33;;;;;;;;;;;27.10;1.00;;;;;;10246719;28;84925;-49
2022/06/28 11:49:34;;;;;;;;;;;28.30;1.00;;;;;;10245689;28;85305;-49
2022/06/28 11:54:34;;;;;;;;;;;27.90;1.00;;;;;;10245652;28;84996;-49
2022/06/28 11:59:52;;;;;;;;;;;27.70;1.00;;;;;;10245110;28;84901;-51
2022/06/28 12:04:55;;;;;;;;;;;27.90;1.00;;;;;;10245614;28;84840;-50
2022/06/28 12:09:56;;;;;;;;;;;29.40;1.00;;;;;;10244167;28;84718;-47
2022/06/28 12:14:57;;;;;;;;;;;29.10;1.00;;;;;;10244675;28;84990;-50
2022/06/28 12:20:06;;;;;;;;;;;29.30;1.00;;;;;;10243816;28;83976;-51
2022/06/28 12:25:10;;;;;;;;;;;30.20;1.00;;;;;;10244723;28;84152;-49
2022/06/28 12:30:11;;;;;;;;;;;31.80;1.00;;;;;;10243483;28;84164;-52
2022/06/28 12:35:12;;;;;;;;;;;31.00;1.00;;;;;;10244743;28;84893;-49
2022/06/28 12:40:13;;;;;;;;;;;31.70;1.00;;;;;;10247997;28;84397;-51
2022/06/28 12:45:14;;;;;;;1.60;1.00;;;32.90;1.00;;;;;;10255716;28;84941;-51
2022/06/28 12:50:16;;;;;;;;;;;33.40;1.00;;;;;;10260462;28;84901;-52
2022/06/28 12:55:17;;;;;;;;;;;32.50;1.00;;;;;;10258402;28;86495;-51
2022/06/28 13:00:18;;;;;;;;;;;30.30;1.00;;;;;;10250894;28;84934;-49
2022/06/28 13:05:21;;;;;;;;;;;28.90;1.00;;;;;;10253228;28;84120;-48
2022/06/28 13:10:22;;;;;;;;;;;28.30;1.00;;;;;;10246049;28;85013;-51
2022/06/28 13:15:22;;;;;;;;;;;30.20;1.00;;;;;;10252935;28;85061;-49
2022/06/28 13:20:24;;;;;;;;;;;31.50;1.00;;;;;;10264673;28;85771;-48
2022/06/28 13:25:24;;;;;;;;;;;31.90;1.00;;;;;;10250008;28;85876;-48
2022/06/28 13:30:25;;;;;;;;;;;32.70;1.00;;;;;;10252079;28;84069;-48
2022/06/28 13:35:26;;;;;;;;;;;32.30;1.00;;;;;;10219877;28;84192;-51
2022/06/28 13:40:26;;;;;;;;;;;32.90;1.00;;;;;;10253778;28;84207;-52
2022/06/28 13:45:27;;;;;;;;;;;33.30;1.00;;;;;;10252534;28;84132;-51
2022/06/28 13:50:28;;;;;;;;;;;32.80;1.00;;;;;;10251181;28;84798;-51
2022/06/28 13:55:28;;;;;;;;;;;32.50;1.00;;;;;;10251181;28;84896;-51
2022/06/28 14:00:29;;;;;;;;;;;31.60;1.00;;;;;;10247654;28;84750;-49
2022/06/28 14:05:29;;;;;;;;;;;30.40;1.00;;;;;;10248818;28;85067;-51
2022/06/28 14:10:30;;;;;;;;;;;29.80;1.00;;;;;;10247120;28;84237;-48
2022/06/28 14:15:31;;;;;;;;;;;29.10;1.00;;;;;;10246375;28;84162;-51
2022/06/28 14:20:31;;;;;;;;;;;28.50;1.00;;;;;;10278337;22;84939;-48
2022/06/28 14:25:32;;;;;;;;;;;28.20;1.00;;;;;;10279898;28;84583;-51
2022/06/28 14:30:33;;;;;;;;;;;28.00;1.00;;;;;;10316261;28;84165;-52
2022/06/28 14:35:34;;;;;;;;;;;27.70;1.00;;;;;;10329120;28;84908;-49
2022/06/28 14:40:35;;;;;;;;;;;27.40;1.00;;;;;;10329764;28;84818;-53
2022/06/28 14:45:35;;;;;;;;;;;27.50;1.00;;;;;;10328782;28;85792;-48
2022/06/28 14:50:37;;;;;;;;;;;27.50;1.00;;;;;;10329463;28;84565;-47
2022/06/28 14:55:40;;;;;;;;;;;27.60;1.00;;;;;;10329631;28;84125;-47
2022/06/28 15:00:41;;;;;;;;;;;27.40;1.00;;;;;;10273626;28;84293;-51
2022/06/28 15:05:41;;;;;;;;;;;27.40;1.00;;;;;;10248255;28;84202;-51
2022/06/28 15:10:42;;;;;;;;;;;27.40;1.00;;;;;;10269033;28;84862;-49
2022/06/28 15:15:43;;;;;;;;;;;27.10;1.00;;;;;;10246486;28;84431;-50
2022/06/28 15:20:43;;;;;;;;;;;27.20;1.00;;;;;;10264313;28;86967;-53
2022/06/28 15:31:03;;;;;;;;;;;27.10;1.00;;;;;;10306891;28;86537;-52
2022/06/28 15:36:05;;;;;;;;;;;26.80;1.00;;;;;;10271413;28;84956;-49
2022/06/28 15:41:06;;;;;;;;;;;26.80;1.00;;;;;;10294281;28;84276;-49
2022/06/28 15:46:06;;;;;;;;;;;26.90;1.00;;;;;;10286415;28;84924;-57
2022/06/28 15:51:07;;;;;;;;;;;26.90;1.00;;;;;;10246501;28;85926;-53
2022/06/28 15:56:07;;;;;;;;;;;26.40;1.00;;;;;;10245141;28;84906;-49
2022/06/28 16:01:08;;;;;;;;;;;26.00;1.00;;;;;;10264601;28;84851;-49
2022/06/28 16:06:09;;;;;;;;;;;25.60;1.00;;;;;;10319669;28;84917;-49
2022/06/28 16:11:09;;;;;;;;;;;25.30;1.00;;;;;;10314100;28;84962;-49
2022/06/28 16:16:10;;;;;;;;;;;25.10;1.00;;;;;;10245728;28;84456;-48
2022/06/28 16:21:10;;;;;;;;;;;25.10;1.00;;;;;;10246703;28;84975;-49
2022/06/28 16:26:11;;;;;;;;;;;24.90;1.00;;;;;;10262027;28;84165;-53
2022/06/28 16:31:11;;;;;;;;;;;24.90;1.00;;;;;;10317363;28;84952;-51
2022/06/28 16:36:12;;;;;;;;;;;24.90;1.00;;;;;;10302137;28;84166;-48
2022/06/28 16:41:12;;;;;;;;;;;24.90;1.00;;;;;;10264413;28;85899;-49
2022/06/28 16:46:14;;;;;;;;;;;25.10;1.00;;;;;;10269101;28;84956;-49
2022/06/28 16:51:14;;;;;;;;;;;25.10;1.00;;;;;;10271651;28;84587;-54
2022/06/28 16:56:15;;;;;;;;;;;25.00;1.00;;;;;;10302320;28;84873;-52
2022/06/28 17:01:15;;;;;;;;;;;25.30;1.00;;;;;;10289322;28;84962;-54
2022/06/28 17:11:35;;;;;;;;;;;25.60;1.00;;;;;;10261784;28;84242;-52
2022/06/28 17:16:35;;;;;;;;;;;25.50;1.00;;;;;;10263365;28;84819;-45
2022/06/28 17:21:36;;;;;;;;;;;25.20;1.00;;;;;;10253610;28;84232;-48
2022/06/28 17:26:37;;;;;;;;;;;25.10;1.00;;;;;;10262307;28;85776;-47
2022/06/28 17:31:38;;;;;;;;;;;24.80;1.00;;;;;;10279754;28;84635;-47
2022/06/28 17:36:38;;;;;;;;;;;24.60;1.00;;;;;;10277301;28;84920;-51
2022/06/28 17:41:39;;;;;;;;;;;24.30;1.00;;;;;;10275635;28;84793;-48
2022/06/28 17:46:39;;;;;;;;;;;24.30;1.00;;;;;;10303652;28;84500;-46
2022/06/28 17:51:40;;;;;;;;;;;24.20;1.00;;;;;;10271434;28;85510;-47
2022/06/28 17:56:41;;;;;;;;;;;24.10;1.00;;;;;;10270962;28;84279;-49
2022/06/28 18:01:42;;;;;;;;;;;24.10;1.00;;;;;;10278176;28;84750;-51
2022/06/28 18:06:43;;;;;;;;;;;23.90;1.00;;;;;;10290009;28;84248;-46
2022/06/28 18:11:44;;;;;;;;;;;23.90;1.00;;;;;;10299262;28;84973;-45
2022/06/28 18:16:45;;;;;;;;;;;23.90;1.00;;;;;;10306314;28;84894;-46
2022/06/28 18:21:45;;;;;;;;;;;24.00;1.00;;;;;;10300057;28;84802;-48
2022/06/28 18:26:46;;;;;;;;;;;23.90;1.00;;;;;;10280610;28;84973;-47
2022/06/28 18:31:46;;;;;;;;;;;23.90;1.00;;;;;;10294867;28;84877;-49
2022/06/28 18:36:47;;;;;;;;;;;23.80;1.00;;;;;;10273059;28;85957;-48
2022/06/28 18:41:47;;;;;;;;;;;23.80;1.00;;;;;;10297949;28;85011;-47
2022/06/28 18:46:48;;;;;;;;;;;23.70;1.00;;;;;;10280931;28;85093;-47
2022/06/28 18:51:49;;;;;;;;;;;23.70;92.40;;;;;;10290842;28;85061;-47
2022/06/28 18:56:50;;;;;;;;;;;23.60;99.90;;;;;;10304099;28;84287;-44
2022/06/28 19:01:50;;;;;;;;;;;23.40;99.90;;;;;;10304488;28;84155;-48
2022/06/28 19:06:51;;;;;;;;;;;23.20;99.90;;;;;;10310754;28;87427;-47
2022/06/28 19:11:51;;;;;;;;;;;23.20;99.90;;;;;;10310419;28;84207;-48
2022/06/28 19:16:53;;;;;;;;;;;23.10;99.90;;;;;;10271785;28;84335;-49
2022/06/28 19:21:53;;;;;;;;;;;23.00;1.00;;;;;;10268996;28;84029;-53
2022/06/28 19:26:54;;;;;;;;;;;22.90;1.00;;;;;;10277224;28;84793;-49
2022/06/28 19:31:54;;;;;;;;;;;22.80;1.00;;;;;;10290004;28;84283;-47
2022/06/28 19:36:55;;;;;;;;;;;22.60;1.00;;;;;;10288894;28;84263;-48
2022/06/28 19:41:55;;;;;;;;;;;22.50;1.00;;;;;;10257678;28;84459;-49
2022/06/28 19:46:56;;;;;;;;;;;22.40;1.00;;;;;;10265896;28;84198;-46
2022/06/28 19:51:56;;;;;;;;;;;22.30;1.00;;;;;;10283012;28;85426;-48
2022/06/28 19:56:57;;;;;;;;;;;22.20;99.90;;;;;;10255748;28;85034;-50
2022/06/28 20:01:58;;;;;;;;;;;22.10;99.90;;;;;;10272142;28;85141;-47
2022/06/28 20:06:58;;;;;;;;;;;21.90;1.00;;;;;;10264707;28;84080;-45
2022/06/28 20:11:59;;;;;;;;;;;21.80;1.00;;;;;;10299844;28;84799;-45
2022/06/28 20:17:00;;;;;;;;;;;21.60;1.00;;;;;;10273035;28;84305;-48
2022/06/28 20:22:03;;;;;;;;;;;21.60;99.90;;;;;;10268064;22;85251;-54
2022/06/28 20:27:04;;;;;;;;;;;21.50;99.90;;;;;;10242139;28;84610;-48
2022/06/28 20:32:05;;;;;;;;;;;21.40;99.90;;;;;;10258593;28;85956;-49
2022/06/28 20:37:05;;;;;;;;;;;21.30;99.90;;;;;;10249921;28;84730;-48
2022/06/28 20:42:12;;;;;;;;;;;21.10;1.00;;;;;;10241688;28;85806;-46
2022/06/28 20:47:13;;;;;;;;;;;21.00;1.00;;;;;;10253959;28;85190;-49
2022/06/28 20:52:14;;;;;;;;;;;20.90;1.00;;;;;;10283395;28;84072;-49
2022/06/28 20:57:14;;;;;;;;;;;20.90;1.00;;;;;;10245662;28;85651;-49
2022/06/28 21:02:15;;;;;;;;;;;20.80;1.00;;;;;;10244898;28;84910;-50
2022/06/28 21:07:15;;;;;;;;;;;20.60;99.90;;;;;;10211999;28;84973;-51
2022/06/28 21:12:16;;;;;;;;;;;20.60;1.00;;;;;;10216727;28;84836;-50
2022/06/28 21:17:18;;;;;;;;;;;20.50;1.00;;;;;;10252971;28;86044;-49
2022/06/28 21:22:18;;;;;;;;;;;20.50;99.90;;;;;;10248111;28;85086;-49
2022/06/28 21:27:19;;;;;;;;;;;20.50;1.00;;;;;;10209939;28;84116;-47
2022/06/28 21:32:19;;;;;;;;;;;20.50;1.00;;;;;;10209428;28;84574;-48
2022/06/28 21:37:20;;;;;;;;;;;20.50;1.00;;;;;;10249690;28;84792;-48
2022/06/28 21:42:20;;;;;;;;;;;20.50;1.00;;;;;;10246881;28;84232;-49
2022/06/28 21:47:21;;;;;;;;;;;20.40;1.00;;;;;;10207033;28;85045;-49
2022/06/28 21:52:21;;;;;;;;;;;20.30;1.00;;;;;;10210341;28;84978;-47
2022/06/28 21:57:22;;;;;;;;;;;20.20;1.00;;;;;;10248909;28;84885;-48
2022/06/28 22:02:22;;;;;;;;;;;20.10;99.90;;;;;;10246344;28;84090;-49
2022/06/28 22:07:23;;;;;;;;;;;20.20;1.00;;;;;;10206613;28;84916;-46
2022/06/28 22:12:23;;;;;;;;;;;20.10;1.00;;;;;;10207463;28;86106;-49
2022/06/28 22:17:24;;;;;;;;;;;20.00;1.00;;;;;;10248205;28;84182;-50
2022/06/28 22:22:24;;;;;;;;;;;20.00;1.00;;;;;;10246085;28;85013;-49
2022/06/28 22:27:25;;;;;;;;;;;20.00;1.00;;;;;;10208219;28;84186;-49
2022/06/28 22:32:26;;;;;;;;;;;19.90;1.00;;;;;;10208391;28;85071;-48
2022/06/28 22:37:26;;;;;;;;;;;19.90;1.00;;;;;;10246839;28;84904;-47
2022/06/28 22:42:27;;;;;;;;;;;19.80;99.90;;;;;;10245409;28;85866;-47
2022/06/28 22:47:27;;;;;;;;;;;19.60;1.00;;;;;;10246630;28;84907;-48
2022/06/28 22:52:28;;;;;;;;;;;19.60;1.00;;;;;;10242438;28;84236;-49
2022/06/28 22:57:28;;;;;;;;;;;19.50;99.90;;;;;;10205631;28;84112;-51
2022/06/28 23:02:29;;;;;;;;;;;19.40;1.00;;;;;;10209326;28;84833;-47
2022/06/28 23:07:29;;;;;;;;;;;19.30;1.00;;;;;;10245745;28;84033;-48
2022/06/28 23:12:30;;;;;;;;;;;19.20;99.90;;;;;;10242088;28;84222;-48
2022/06/28 23:17:30;;;;;;;;;;;19.10;99.90;;;;;;10205351;28;84060;-48
2022/06/28 23:22:31;;;;;;;;;;;19.00;1.00;;;;;;10208345;28;84212;-50
2022/06/28 23:27:31;;;;;;;;;;;19.00;1.00;;;;;;10245176;28;84165;-51
2022/06/28 23:32:32;;;;;;;;;;;18.90;1.00;;;;;;10241661;28;84960;-47
2022/06/28 23:37:32;;;;;;;;;;;18.80;38.60;;;;;;10203290;28;86867;-47
2022/06/28 23:42:33;;;;;;;;;;;18.70;92.60;;;;;;10209468;28;85128;-48
2022/06/28 23:47:34;;;;;;;;;;;18.70;99.90;;;;;;10245782;28;84894;-47
2022/06/28 23:52:34;;;;;;;;;;;18.60;1.00;;;;;;10240855;28;85014;-47
2022/06/28 23:57:35;;;;;;;;;;;18.60;1.00;;;;;;10204790;28;84811;-49
